sensor_id;sensor_type;location;lat;lon;timestamp;temperature;humidity
9847;DHT22;4962;50.084;8.794;2022-07-29T00:02:14;21.70;75.80
9847;DHT22;4962;50.084;8.794;2022-07-29T00:04:41;21.70;76.00
9847;DHT22;4962;50.084;8.794;2022-07-29T00:07:08;21.70;76.00
9847;DHT22;4962;50.084;8.794;2022-07-29T00:09:35;21.70;76.20
9847;DHT22;4962;50.084;8.794;2022-07-29T00:12:04;21.70;76.10
9847;DHT22;4962;50.084;8.794;2022-07-29T00:14:31;21.70;76.00
9847;DHT22;4962;50.084;8.794;2022-07-29T00:16:58;21.70;76.00
9847;DHT22;4962;50.084;8.794;2022-07-29T00:19:25;21.70;76.00
9847;DHT22;4962;50.084;8.794;2022-07-29T00:21:52;21.70;76.10
9847;DHT22;4962;50.084;8.794;2022-07-29T00:24:19;21.70;76.20
9847;DHT22;4962;50.084;8.794;2022-07-29T00:26:48;21.60;76.20
9847;DHT22;4962;50.084;8.794;2022-07-29T00:29:17;21.60;76.20
9847;DHT22;4962;50.084;8.794;2022-07-29T00:31:44;21.70;76.40
9847;DHT22;4962;50.084;8.794;2022-07-29T00:34:11;21.70;76.40
9847;DHT22;4962;50.084;8.794;2022-07-29T00:36:52;21.70;76.40
9847;DHT22;4962;50.084;8.794;2022-07-29T00:39:18;21.70;76.30
9847;DHT22;4962;50.084;8.794;2022-07-29T00:41:45;21.70;76.30
9847;DHT22;4962;50.084;8.794;2022-07-29T00:44:12;21.60;76.40
9847;DHT22;4962;50.084;8.794;2022-07-29T00:46:43;21.60;76.40
9847;DHT22;4962;50.084;8.794;2022-07-29T00:49:10;21.70;76.60
9847;DHT22;4962;50.084;8.794;2022-07-29T00:51:37;21.60;76.60
9847;DHT22;4962;50.084;8.794;2022-07-29T00:54:05;21.60;76.70
9847;DHT22;4962;50.084;8.794;2022-07-29T00:56:35;21.60;76.70
9847;DHT22;4962;50.084;8.794;2022-07-29T00:59:01;21.60;76.70
9847;DHT22;4962;50.084;8.794;2022-07-29T01:01:29;21.60;76.70
9847;DHT22;4962;50.084;8.794;2022-07-29T01:03:57;21.60;76.70
9847;DHT22;4962;50.084;8.794;2022-07-29T01:06:25;21.50;77.60
9847;DHT22;4962;50.084;8.794;2022-07-29T01:08:52;21.50;76.90
9847;DHT22;4962;50.084;8.794;2022-07-29T01:11:20;21.50;77.10
9847;DHT22;4962;50.084;8.794;2022-07-29T01:13:47;21.50;77.10
9847;DHT22;4962;50.084;8.794;2022-07-29T01:16:20;21.50;77.20
9847;DHT22;4962;50.084;8.794;2022-07-29T01:18:49;21.50;77.30
9847;DHT22;4962;50.084;8.794;2022-07-29T01:21:44;21.40;77.30
9847;DHT22;4962;50.084;8.794;2022-07-29T01:24:37;21.40;77.60
9847;DHT22;4962;50.084;8.794;2022-07-29T01:27:24;21.40;77.80
9847;DHT22;4962;50.084;8.794;2022-07-29T01:29:58;21.40;77.90
9847;DHT22;4962;50.084;8.794;2022-07-29T01:32:28;21.40;77.80
9847;DHT22;4962;50.084;8.794;2022-07-29T01:35:00;21.50;77.90
9847;DHT22;4962;50.084;8.794;2022-07-29T01:37:38;21.40;77.60
9847;DHT22;4962;50.084;8.794;2022-07-29T01:40:09;21.40;77.70
9847;DHT22;4962;50.084;8.794;2022-07-29T01:42:42;21.40;77.90
9847;DHT22;4962;50.084;8.794;2022-07-29T01:45:15;21.40;78.10
9847;DHT22;4962;50.084;8.794;2022-07-29T01:47:47;21.30;78.10
9847;DHT22;4962;50.084;8.794;2022-07-29T01:50:17;21.30;78.20
9847;DHT22;4962;50.084;8.794;2022-07-29T01:52:56;21.30;78.40
9847;DHT22;4962;50.084;8.794;2022-07-29T01:55:28;21.20;78.40
9847;DHT22;4962;50.084;8.794;2022-07-29T01:57:57;21.30;78.60
9847;DHT22;4962;50.084;8.794;2022-07-29T02:00:30;21.30;78.60
9847;DHT22;4962;50.084;8.794;2022-07-29T02:03:05;21.20;78.70
9847;DHT22;4962;50.084;8.794;2022-07-29T02:05:35;21.20;78.80
9847;DHT22;4962;50.084;8.794;2022-07-29T02:08:06;21.30;78.90
9847;DHT22;4962;50.084;8.794;2022-07-29T02:10:35;21.20;79.00
9847;DHT22;4962;50.084;8.794;2022-07-29T02:13:03;21.20;79.20
9847;DHT22;4962;50.084;8.794;2022-07-29T02:15:34;21.20;79.30
9847;DHT22;4962;50.084;8.794;2022-07-29T02:18:04;21.30;79.30
9847;DHT22;4962;50.084;8.794;2022-07-29T02:20:33;21.30;79.10
9847;DHT22;4962;50.084;8.794;2022-07-29T02:23:01;21.30;79.10
9847;DHT22;4962;50.084;8.794;2022-07-29T02:25:29;21.20;79.10
9847;DHT22;4962;50.084;8.794;2022-07-29T02:27:57;21.20;79.20
9847;DHT22;4962;50.084;8.794;2022-07-29T02:30:26;21.20;79.40
9847;DHT22;4962;50.084;8.794;2022-07-29T02:32:55;21.20;79.60
9847;DHT22;4962;50.084;8.794;2022-07-29T02:35:23;21.10;79.70
9847;DHT22;4962;50.084;8.794;2022-07-29T02:37:52;21.10;80.00
9847;DHT22;4962;50.084;8.794;2022-07-29T02:40:34;21.10;80.00
9847;DHT22;4962;50.084;8.794;2022-07-29T02:43:04;21.10;79.90
9847;DHT22;4962;50.084;8.794;2022-07-29T02:45:32;21.10;80.00
9847;DHT22;4962;50.084;8.794;2022-07-29T02:48:05;21.20;80.10
9847;DHT22;4962;50.084;8.794;2022-07-29T02:50:39;21.20;80.10
9847;DHT22;4962;50.084;8.794;2022-07-29T02:53:14;21.10;80.10
9847;DHT22;4962;50.084;8.794;2022-07-29T02:55:45;21.10;81.00
9847;DHT22;4962;50.084;8.794;2022-07-29T02:58:15;21.10;80.20
9847;DHT22;4962;50.084;8.794;2022-07-29T03:00:46;21.10;80.40
9847;DHT22;4962;50.084;8.794;2022-07-29T03:03:20;21.10;80.60
9847;DHT22;4962;50.084;8.794;2022-07-29T03:05:47;21.10;80.70
9847;DHT22;4962;50.084;8.794;2022-07-29T03:08:15;21.10;80.70
9847;DHT22;4962;50.084;8.794;2022-07-29T03:10:43;21.10;80.70
9847;DHT22;4962;50.084;8.794;2022-07-29T03:13:11;21.10;80.60
9847;DHT22;4962;50.084;8.794;2022-07-29T03:15:39;21.00;80.80
9847;DHT22;4962;50.084;8.794;2022-07-29T03:18:11;21.10;81.10
9847;DHT22;4962;50.084;8.794;2022-07-29T03:20:40;21.20;81.10
9847;DHT22;4962;50.084;8.794;2022-07-29T03:23:08;21.30;80.90
9847;DHT22;4962;50.084;8.794;2022-07-29T03:25:35;21.40;80.70
9847;DHT22;4962;50.084;8.794;2022-07-29T03:28:03;21.40;80.30
9847;DHT22;4962;50.084;8.794;2022-07-29T03:30:32;21.50;80.10
9847;DHT22;4962;50.084;8.794;2022-07-29T03:33:02;21.60;80.10
9847;DHT22;4962;50.084;8.794;2022-07-29T03:35:29;21.70;80.20
9847;DHT22;4962;50.084;8.794;2022-07-29T03:37:58;21.70;80.40
9847;DHT22;4962;50.084;8.794;2022-07-29T03:40:29;21.70;80.20
9847;DHT22;4962;50.084;8.794;2022-07-29T03:42:59;21.60;79.90
9847;DHT22;4962;50.084;8.794;2022-07-29T03:45:28;21.40;80.30
9847;DHT22;4962;50.084;8.794;2022-07-29T03:47:59;21.40;80.90
9847;DHT22;4962;50.084;8.794;2022-07-29T03:50:30;21.40;81.30
9847;DHT22;4962;50.084;8.794;2022-07-29T03:53:00;21.50;81.20
9847;DHT22;4962;50.084;8.794;2022-07-29T03:55:36;21.50;81.00
9847;DHT22;4962;50.084;8.794;2022-07-29T03:58:05;21.50;80.80
9847;DHT22;4962;50.084;8.794;2022-07-29T04:00:36;21.50;81.00
9847;DHT22;4962;50.084;8.794;2022-07-29T04:03:03;21.60;81.00
9847;DHT22;4962;50.084;8.794;2022-07-29T04:05:32;21.60;80.80
9847;DHT22;4962;50.084;8.794;2022-07-29T04:08:01;21.60;80.90
9847;DHT22;4962;50.084;8.794;2022-07-29T04:10:31;21.60;80.90
9847;DHT22;4962;50.084;8.794;2022-07-29T04:12:58;21.60;81.00
9847;DHT22;4962;50.084;8.794;2022-07-29T04:15:26;21.60;81.10
9847;DHT22;4962;50.084;8.794;2022-07-29T04:17:54;21.60;81.10
9847;DHT22;4962;50.084;8.794;2022-07-29T04:20:20;21.60;81.30
9847;DHT22;4962;50.084;8.794;2022-07-29T04:22:47;21.60;81.40
9847;DHT22;4962;50.084;8.794;2022-07-29T04:25:15;21.60;81.30
9847;DHT22;4962;50.084;8.794;2022-07-29T04:27:42;21.60;81.80
9847;DHT22;4962;50.084;8.794;2022-07-29T04:30:39;21.60;82.00
9847;DHT22;4962;50.084;8.794;2022-07-29T04:33:07;21.60;82.10
9847;DHT22;4962;50.084;8.794;2022-07-29T04:35:35;21.50;81.70
9847;DHT22;4962;50.084;8.794;2022-07-29T04:38:03;21.60;81.70
9847;DHT22;4962;50.084;8.794;2022-07-29T04:40:31;21.50;81.60
9847;DHT22;4962;50.084;8.794;2022-07-29T04:42:59;21.50;81.60
9847;DHT22;4962;50.084;8.794;2022-07-29T04:45:26;21.40;81.70
9847;DHT22;4962;50.084;8.794;2022-07-29T04:47:55;21.40;81.70
9847;DHT22;4962;50.084;8.794;2022-07-29T04:50:22;21.40;81.70
9847;DHT22;4962;50.084;8.794;2022-07-29T04:52:49;21.40;81.70
9847;DHT22;4962;50.084;8.794;2022-07-29T04:55:16;21.30;81.90
9847;DHT22;4962;50.084;8.794;2022-07-29T04:57:43;21.30;82.10
9847;DHT22;4962;50.084;8.794;2022-07-29T05:00:10;21.30;82.30
9847;DHT22;4962;50.084;8.794;2022-07-29T05:02:37;21.20;82.30
9847;DHT22;4962;50.084;8.794;2022-07-29T05:05:06;21.20;82.60
9847;DHT22;4962;50.084;8.794;2022-07-29T05:07:33;21.20;82.90
9847;DHT22;4962;50.084;8.794;2022-07-29T05:10:00;21.20;82.90
9847;DHT22;4962;50.084;8.794;2022-07-29T05:12:27;21.30;82.70
9847;DHT22;4962;50.084;8.794;2022-07-29T05:14:54;21.20;82.50
9847;DHT22;4962;50.084;8.794;2022-07-29T05:17:21;21.10;82.60
9847;DHT22;4962;50.084;8.794;2022-07-29T05:19:48;20.90;82.90
9847;DHT22;4962;50.084;8.794;2022-07-29T05:22:19;20.70;83.50
9847;DHT22;4962;50.084;8.794;2022-07-29T05:24:46;20.60;84.40
9847;DHT22;4962;50.084;8.794;2022-07-29T05:27:15;20.50;84.50
9847;DHT22;4962;50.084;8.794;2022-07-29T05:29:42;20.40;84.70
9847;DHT22;4962;50.084;8.794;2022-07-29T05:32:09;20.40;85.20
9847;DHT22;4962;50.084;8.794;2022-07-29T05:34:36;20.40;85.40
9847;DHT22;4962;50.084;8.794;2022-07-29T05:37:03;20.40;85.70
9847;DHT22;4962;50.084;8.794;2022-07-29T05:39:32;20.40;85.90
9847;DHT22;4962;50.084;8.794;2022-07-29T05:41:58;20.50;86.10
9847;DHT22;4962;50.084;8.794;2022-07-29T05:44:25;20.70;86.00
9847;DHT22;4962;50.084;8.794;2022-07-29T05:46:52;20.80;86.30
9847;DHT22;4962;50.084;8.794;2022-07-29T05:49:19;20.90;86.40
9847;DHT22;4962;50.084;8.794;2022-07-29T05:51:46;20.90;86.70
9847;DHT22;4962;50.084;8.794;2022-07-29T05:54:14;20.80;88.30
9847;DHT22;4962;50.084;8.794;2022-07-29T05:56:45;20.80;88.60
9847;DHT22;4962;50.084;8.794;2022-07-29T05:59:16;20.60;88.60
9847;DHT22;4962;50.084;8.794;2022-07-29T06:01:43;20.60;88.80
9847;DHT22;4962;50.084;8.794;2022-07-29T06:04:10;20.60;89.30
9847;DHT22;4962;50.084;8.794;2022-07-29T06:06:37;20.60;89.60
9847;DHT22;4962;50.084;8.794;2022-07-29T06:09:03;20.70;89.60
9847;DHT22;4962;50.084;8.794;2022-07-29T06:11:46;20.70;89.30
9847;DHT22;4962;50.084;8.794;2022-07-29T06:14:13;20.70;89.70
9847;DHT22;4962;50.084;8.794;2022-07-29T06:16:40;20.70;89.80
9847;DHT22;4962;50.084;8.794;2022-07-29T06:19:07;20.70;89.80
9847;DHT22;4962;50.084;8.794;2022-07-29T06:21:34;20.60;89.80
9847;DHT22;4962;50.084;8.794;2022-07-29T06:24:01;20.60;89.80
9847;DHT22;4962;50.084;8.794;2022-07-29T06:26:28;20.50;89.90
9847;DHT22;4962;50.084;8.794;2022-07-29T06:28:56;20.40;90.40
9847;DHT22;4962;50.084;8.794;2022-07-29T06:31:24;20.40;90.70
9847;DHT22;4962;50.084;8.794;2022-07-29T06:33:53;20.40;91.00
9847;DHT22;4962;50.084;8.794;2022-07-29T06:36:20;20.40;91.10
9847;DHT22;4962;50.084;8.794;2022-07-29T06:38:47;20.50;91.30
9847;DHT22;4962;50.084;8.794;2022-07-29T06:41:14;20.60;91.60
9847;DHT22;4962;50.084;8.794;2022-07-29T06:43:43;20.70;91.80
9847;DHT22;4962;50.084;8.794;2022-07-29T06:46:12;20.80;91.50
9847;DHT22;4962;50.084;8.794;2022-07-29T06:48:40;20.80;91.30
9847;DHT22;4962;50.084;8.794;2022-07-29T06:51:08;20.80;91.20
9847;DHT22;4962;50.084;8.794;2022-07-29T06:53:36;20.80;91.20
9847;DHT22;4962;50.084;8.794;2022-07-29T06:56:04;20.90;91.50
9847;DHT22;4962;50.084;8.794;2022-07-29T06:58:33;20.90;91.80
9847;DHT22;4962;50.084;8.794;2022-07-29T07:01:02;21.00;92.00
9847;DHT22;4962;50.084;8.794;2022-07-29T07:03:31;21.10;92.10
9847;DHT22;4962;50.084;8.794;2022-07-29T07:05:58;21.20;92.10
9847;DHT22;4962;50.084;8.794;2022-07-29T07:08:25;21.20;92.00
9847;DHT22;4962;50.084;8.794;2022-07-29T07:10:53;21.20;92.00
9847;DHT22;4962;50.084;8.794;2022-07-29T07:13:20;21.30;92.00
9847;DHT22;4962;50.084;8.794;2022-07-29T07:15:47;21.40;92.10
9847;DHT22;4962;50.084;8.794;2022-07-29T07:18:15;21.50;92.10
9847;DHT22;4962;50.084;8.794;2022-07-29T07:20:53;21.60;91.90
9847;DHT22;4962;50.084;8.794;2022-07-29T07:23:20;21.70;91.80
9847;DHT22;4962;50.084;8.794;2022-07-29T07:25:46;21.80;91.80
9847;DHT22;4962;50.084;8.794;2022-07-29T07:28:13;21.90;91.80
9847;DHT22;4962;50.084;8.794;2022-07-29T07:30:40;21.90;91.70
9847;DHT22;4962;50.084;8.794;2022-07-29T07:33:07;22.00;91.70
9847;DHT22;4962;50.084;8.794;2022-07-29T07:35:34;22.00;91.60
9847;DHT22;4962;50.084;8.794;2022-07-29T07:38:03;22.10;91.60
9847;DHT22;4962;50.084;8.794;2022-07-29T07:40:31;22.10;91.50
9847;DHT22;4962;50.084;8.794;2022-07-29T07:42:58;22.20;91.50
9847;DHT22;4962;50.084;8.794;2022-07-29T07:45:26;22.20;91.40
9847;DHT22;4962;50.084;8.794;2022-07-29T07:47:54;22.30;91.50
9847;DHT22;4962;50.084;8.794;2022-07-29T07:50:21;22.40;91.40
9847;DHT22;4962;50.084;8.794;2022-07-29T07:52:50;22.60;91.40
9847;DHT22;4962;50.084;8.794;2022-07-29T07:55:19;22.70;91.20
9847;DHT22;4962;50.084;8.794;2022-07-29T07:57:46;22.80;91.10
9847;DHT22;4962;50.084;8.794;2022-07-29T08:00:14;22.90;90.80
9847;DHT22;4962;50.084;8.794;2022-07-29T08:02:41;23.00;90.60
9847;DHT22;4962;50.084;8.794;2022-07-29T08:05:11;23.00;90.50
9847;DHT22;4962;50.084;8.794;2022-07-29T08:07:42;23.20;90.40
9847;DHT22;4962;50.084;8.794;2022-07-29T08:10:09;23.20;90.10
9847;DHT22;4962;50.084;8.794;2022-07-29T08:12:37;23.30;90.00
9847;DHT22;4962;50.084;8.794;2022-07-29T08:15:05;23.40;89.70
9847;DHT22;4962;50.084;8.794;2022-07-29T08:17:33;23.50;89.30
9847;DHT22;4962;50.084;8.794;2022-07-29T08:20:00;23.60;89.10
9847;DHT22;4962;50.084;8.794;2022-07-29T08:22:27;23.70;88.90
9847;DHT22;4962;50.084;8.794;2022-07-29T08:24:54;23.80;88.30
9847;DHT22;4962;50.084;8.794;2022-07-29T08:27:22;23.80;87.80
9847;DHT22;4962;50.084;8.794;2022-07-29T08:29:50;23.90;87.50
9847;DHT22;4962;50.084;8.794;2022-07-29T08:32:17;23.90;87.20
9847;DHT22;4962;50.084;8.794;2022-07-29T08:34:44;23.90;86.70
9847;DHT22;4962;50.084;8.794;2022-07-29T08:37:11;23.90;86.90
9847;DHT22;4962;50.084;8.794;2022-07-29T08:39:38;23.80;87.20
9847;DHT22;4962;50.084;8.794;2022-07-29T08:42:05;23.90;87.50
9847;DHT22;4962;50.084;8.794;2022-07-29T08:44:33;23.90;87.60
9847;DHT22;4962;50.084;8.794;2022-07-29T08:47:02;23.80;87.70
9847;DHT22;4962;50.084;8.794;2022-07-29T08:49:30;23.70;87.90
9847;DHT22;4962;50.084;8.794;2022-07-29T08:51:57;23.60;88.10
9847;DHT22;4962;50.084;8.794;2022-07-29T08:54:25;23.40;88.80
9847;DHT22;4962;50.084;8.794;2022-07-29T08:56:52;23.20;89.30
9847;DHT22;4962;50.084;8.794;2022-07-29T08:59:20;23.10;89.70
9847;DHT22;4962;50.084;8.794;2022-07-29T09:01:53;23.00;90.60
9847;DHT22;4962;50.084;8.794;2022-07-29T09:04:24;23.00;91.30
9847;DHT22;4962;50.084;8.794;2022-07-29T09:06:54;23.10;91.60
9847;DHT22;4962;50.084;8.794;2022-07-29T09:09:23;23.20;91.10
9847;DHT22;4962;50.084;8.794;2022-07-29T09:11:50;23.20;91.10
9847;DHT22;4962;50.084;8.794;2022-07-29T09:14:30;23.30;91.10
9847;DHT22;4962;50.084;8.794;2022-07-29T09:16:57;23.30;91.10
9847;DHT22;4962;50.084;8.794;2022-07-29T09:19:27;23.30;91.20
9847;DHT22;4962;50.084;8.794;2022-07-29T09:21:56;23.40;91.10
9847;DHT22;4962;50.084;8.794;2022-07-29T09:24:38;23.40;91.00
9847;DHT22;4962;50.084;8.794;2022-07-29T09:27:12;23.50;91.00
9847;DHT22;4962;50.084;8.794;2022-07-29T09:29:44;23.50;91.30
9847;DHT22;4962;50.084;8.794;2022-07-29T09:32:11;23.40;91.40
9847;DHT22;4962;50.084;8.794;2022-07-29T09:34:39;23.30;92.00
9847;DHT22;4962;50.084;8.794;2022-07-29T09:37:06;23.00;93.10
9847;DHT22;4962;50.084;8.794;2022-07-29T09:39:37;22.80;94.60
9847;DHT22;4962;50.084;8.794;2022-07-29T09:42:10;22.60;96.80
9847;DHT22;4962;50.084;8.794;2022-07-29T09:44:45;22.60;99.90
9847;DHT22;4962;50.084;8.794;2022-07-29T09:47:14;22.60;99.90
9847;DHT22;4962;50.084;8.794;2022-07-29T09:49:53;22.60;99.90
9847;DHT22;4962;50.084;8.794;2022-07-29T09:52:21;22.60;99.90
9847;DHT22;4962;50.084;8.794;2022-07-29T09:54:48;22.40;99.90
9847;DHT22;4962;50.084;8.794;2022-07-29T10:00:41;22.10;99.90
9847;DHT22;4962;50.084;8.794;2022-07-29T10:03:09;22.00;99.90
9847;DHT22;4962;50.084;8.794;2022-07-29T10:05:39;21.90;99.90
9847;DHT22;4962;50.084;8.794;2022-07-29T10:08:07;21.80;99.90
9847;DHT22;4962;50.084;8.794;2022-07-29T10:10:36;21.80;99.90
9847;DHT22;4962;50.084;8.794;2022-07-29T10:13:05;21.80;99.90
9847;DHT22;4962;50.084;8.794;2022-07-29T10:15:34;21.80;99.90
9847;DHT22;4962;50.084;8.794;2022-07-29T10:18:02;21.80;99.90
9847;DHT22;4962;50.084;8.794;2022-07-29T10:20:29;21.80;99.90
9847;DHT22;4962;50.084;8.794;2022-07-29T10:22:58;21.80;99.90
9847;DHT22;4962;50.084;8.794;2022-07-29T10:25:26;21.80;99.90
9847;DHT22;4962;50.084;8.794;2022-07-29T10:27:54;21.90;99.90
9847;DHT22;4962;50.084;8.794;2022-07-29T10:30:22;21.90;99.90
9847;DHT22;4962;50.084;8.794;2022-07-29T10:33:16;22.00;99.90
9847;DHT22;4962;50.084;8.794;2022-07-29T10:36:02;22.00;99.90
9847;DHT22;4962;50.084;8.794;2022-07-29T10:38:45;22.20;99.90
9847;DHT22;4962;50.084;8.794;2022-07-29T10:41:45;22.20;99.90
9847;DHT22;4962;50.084;8.794;2022-07-29T10:44:16;22.30;99.90
9847;DHT22;4962;50.084;8.794;2022-07-29T10:46:44;22.40;99.90
9847;DHT22;4962;50.084;8.794;2022-07-29T10:49:13;22.50;99.90
9847;DHT22;4962;50.084;8.794;2022-07-29T10:51:54;22.50;99.90
9847;DHT22;4962;50.084;8.794;2022-07-29T10:54:39;22.60;99.90
9847;DHT22;4962;50.084;8.794;2022-07-29T10:57:19;22.60;99.90
9847;DHT22;4962;50.084;8.794;2022-07-29T10:59:48;22.60;99.90
9847;DHT22;4962;50.084;8.794;2022-07-29T11:02:43;22.50;99.90
9847;DHT22;4962;50.084;8.794;2022-07-29T11:08:22;22.50;99.90
9847;DHT22;4962;50.084;8.794;2022-07-29T11:13:53;22.50;99.90
9847;DHT22;4962;50.084;8.794;2022-07-29T11:16:21;22.60;99.90
9847;DHT22;4962;50.084;8.794;2022-07-29T11:21:52;22.60;99.90
9847;DHT22;4962;50.084;8.794;2022-07-29T11:24:21;22.80;99.90
9847;DHT22;4962;50.084;8.794;2022-07-29T11:27:09;22.90;99.90
9847;DHT22;4962;50.084;8.794;2022-07-29T11:29:39;23.00;99.90
9847;DHT22;4962;50.084;8.794;2022-07-29T11:32:11;23.10;99.90
9847;DHT22;4962;50.084;8.794;2022-07-29T11:34:38;23.30;99.90
9847;DHT22;4962;50.084;8.794;2022-07-29T11:37:21;23.40;99.90
9847;DHT22;4962;50.084;8.794;2022-07-29T11:40:08;23.50;99.90
9847;DHT22;4962;50.084;8.794;2022-07-29T11:42:47;23.70;99.90
9847;DHT22;4962;50.084;8.794;2022-07-29T11:45:20;23.80;99.50
9847;DHT22;4962;50.084;8.794;2022-07-29T11:47:49;23.90;98.70
9847;DHT22;4962;50.084;8.794;2022-07-29T11:50:26;24.00;98.00
9847;DHT22;4962;50.084;8.794;2022-07-29T11:52:53;24.00;97.40
9847;DHT22;4962;50.084;8.794;2022-07-29T11:55:22;24.10;96.90
9847;DHT22;4962;50.084;8.794;2022-07-29T11:57:53;24.20;96.60
9847;DHT22;4962;50.084;8.794;2022-07-29T12:00:23;24.30;96.30
9847;DHT22;4962;50.084;8.794;2022-07-29T12:02:50;24.50;96.00
9847;DHT22;4962;50.084;8.794;2022-07-29T12:05:18;24.60;95.20
9847;DHT22;4962;50.084;8.794;2022-07-29T12:07:46;24.80;94.80
9847;DHT22;4962;50.084;8.794;2022-07-29T12:10:13;24.90;94.80
9847;DHT22;4962;50.084;8.794;2022-07-29T12:12:40;25.00;94.10
9847;DHT22;4962;50.084;8.794;2022-07-29T12:15:14;25.00;93.20
9847;DHT22;4962;50.084;8.794;2022-07-29T12:17:42;25.00;93.20
9847;DHT22;4962;50.084;8.794;2022-07-29T12:20:09;25.10;93.10
9847;DHT22;4962;50.084;8.794;2022-07-29T12:22:39;25.20;93.20
9847;DHT22;4962;50.084;8.794;2022-07-29T12:25:08;25.30;92.80
9847;DHT22;4962;50.084;8.794;2022-07-29T12:27:42;25.50;92.30
9847;DHT22;4962;50.084;8.794;2022-07-29T12:30:13;25.60;92.00
9847;DHT22;4962;50.084;8.794;2022-07-29T12:32:45;25.70;91.70
9847;DHT22;4962;50.084;8.794;2022-07-29T12:35:14;25.80;91.50
9847;DHT22;4962;50.084;8.794;2022-07-29T12:37:44;25.90;91.30
9847;DHT22;4962;50.084;8.794;2022-07-29T12:40:15;26.00;90.60
9847;DHT22;4962;50.084;8.794;2022-07-29T12:43:05;26.00;90.00
9847;DHT22;4962;50.084;8.794;2022-07-29T12:45:33;26.00;89.90
9847;DHT22;4962;50.084;8.794;2022-07-29T12:48:11;26.00;89.90
9847;DHT22;4962;50.084;8.794;2022-07-29T12:50:56;26.00;89.00
9847;DHT22;4962;50.084;8.794;2022-07-29T12:53:24;25.90;87.70
9847;DHT22;4962;50.084;8.794;2022-07-29T12:55:56;25.80;88.70
9847;DHT22;4962;50.084;8.794;2022-07-29T12:58:31;25.90;87.90
9847;DHT22;4962;50.084;8.794;2022-07-29T13:01:06;25.80;87.20
9847;DHT22;4962;50.084;8.794;2022-07-29T13:03:48;25.70;86.60
9847;DHT22;4962;50.084;8.794;2022-07-29T13:06:31;25.70;86.80
9847;DHT22;4962;50.084;8.794;2022-07-29T13:09:00;25.60;87.10
9847;DHT22;4962;50.084;8.794;2022-07-29T13:11:30;25.60;87.30
9847;DHT22;4962;50.084;8.794;2022-07-29T13:13:57;25.70;87.10
9847;DHT22;4962;50.084;8.794;2022-07-29T13:16:26;25.80;87.00
9847;DHT22;4962;50.084;8.794;2022-07-29T13:19:07;25.80;85.90
9847;DHT22;4962;50.084;8.794;2022-07-29T13:21:35;25.80;85.50
9847;DHT22;4962;50.084;8.794;2022-07-29T13:24:02;25.80;85.60
9847;DHT22;4962;50.084;8.794;2022-07-29T13:26:29;25.70;85.90
9847;DHT22;4962;50.084;8.794;2022-07-29T13:28:57;25.70;86.30
9847;DHT22;4962;50.084;8.794;2022-07-29T13:31:25;25.70;86.60
9847;DHT22;4962;50.084;8.794;2022-07-29T13:33:52;25.80;86.60
9847;DHT22;4962;50.084;8.794;2022-07-29T13:36:19;25.70;86.70
9847;DHT22;4962;50.084;8.794;2022-07-29T13:38:46;25.80;87.50
9847;DHT22;4962;50.084;8.794;2022-07-29T13:41:13;25.90;87.60
9847;DHT22;4962;50.084;8.794;2022-07-29T13:43:42;26.00;87.30
9847;DHT22;4962;50.084;8.794;2022-07-29T13:46:08;26.10;87.20
9847;DHT22;4962;50.084;8.794;2022-07-29T13:48:37;26.20;87.30
9847;DHT22;4962;50.084;8.794;2022-07-29T13:51:04;26.30;86.30
9847;DHT22;4962;50.084;8.794;2022-07-29T13:53:31;26.30;86.20
9847;DHT22;4962;50.084;8.794;2022-07-29T13:55:58;26.20;86.60
9847;DHT22;4962;50.084;8.794;2022-07-29T13:58:25;26.30;87.20
9847;DHT22;4962;50.084;8.794;2022-07-29T14:00:52;26.40;87.40
9847;DHT22;4962;50.084;8.794;2022-07-29T14:03:21;26.50;87.10
9847;DHT22;4962;50.084;8.794;2022-07-29T14:05:52;26.60;86.40
9847;DHT22;4962;50.084;8.794;2022-07-29T14:08:18;26.60;87.30
9847;DHT22;4962;50.084;8.794;2022-07-29T14:10:47;26.60;86.90
9847;DHT22;4962;50.084;8.794;2022-07-29T14:13:14;26.60;86.90
9847;DHT22;4962;50.084;8.794;2022-07-29T14:15:41;26.60;86.10
9847;DHT22;4962;50.084;8.794;2022-07-29T14:18:08;26.60;85.80
9847;DHT22;4962;50.084;8.794;2022-07-29T14:20:35;26.60;85.80
9847;DHT22;4962;50.084;8.794;2022-07-29T14:23:03;26.50;86.20
9847;DHT22;4962;50.084;8.794;2022-07-29T14:25:31;26.50;86.10
9847;DHT22;4962;50.084;8.794;2022-07-29T14:28:00;26.50;85.90
9847;DHT22;4962;50.084;8.794;2022-07-29T14:30:27;26.50;86.20
9847;DHT22;4962;50.084;8.794;2022-07-29T14:32:54;26.50;86.30
9847;DHT22;4962;50.084;8.794;2022-07-29T14:35:20;26.50;86.40
9847;DHT22;4962;50.084;8.794;2022-07-29T14:37:48;26.60;86.60
9847;DHT22;4962;50.084;8.794;2022-07-29T14:40:16;26.60;86.10
9847;DHT22;4962;50.084;8.794;2022-07-29T14:42:43;26.60;85.90
9847;DHT22;4962;50.084;8.794;2022-07-29T14:45:10;26.60;85.40
9847;DHT22;4962;50.084;8.794;2022-07-29T14:47:37;26.50;86.10
9847;DHT22;4962;50.084;8.794;2022-07-29T14:50:06;26.50;86.80
9847;DHT22;4962;50.084;8.794;2022-07-29T14:52:33;26.50;87.50
9847;DHT22;4962;50.084;8.794;2022-07-29T14:55:03;26.50;88.00
9847;DHT22;4962;50.084;8.794;2022-07-29T14:57:32;26.50;88.40
9847;DHT22;4962;50.084;8.794;2022-07-29T14:59:59;26.50;87.70
9847;DHT22;4962;50.084;8.794;2022-07-29T15:02:25;26.50;87.90
9847;DHT22;4962;50.084;8.794;2022-07-29T15:04:52;26.50;88.00
9847;DHT22;4962;50.084;8.794;2022-07-29T15:07:19;26.40;88.50
9847;DHT22;4962;50.084;8.794;2022-07-29T15:09:46;26.40;88.20
9847;DHT22;4962;50.084;8.794;2022-07-29T15:12:13;26.40;88.30
9847;DHT22;4962;50.084;8.794;2022-07-29T15:14:42;26.40;88.20
9847;DHT22;4962;50.084;8.794;2022-07-29T15:17:12;26.40;88.10
9847;DHT22;4962;50.084;8.794;2022-07-29T15:19:39;26.40;88.30
9847;DHT22;4962;50.084;8.794;2022-07-29T15:22:06;26.40;88.20
9847;DHT22;4962;50.084;8.794;2022-07-29T15:24:35;26.40;88.70
9847;DHT22;4962;50.084;8.794;2022-07-29T15:27:02;26.40;89.10
9847;DHT22;4962;50.084;8.794;2022-07-29T15:29:29;26.40;88.70
9847;DHT22;4962;50.084;8.794;2022-07-29T15:31:57;26.40;88.10
9847;DHT22;4962;50.084;8.794;2022-07-29T15:34:27;26.30;88.40
9847;DHT22;4962;50.084;8.794;2022-07-29T15:36:56;26.30;88.60
9847;DHT22;4962;50.084;8.794;2022-07-29T15:39:23;26.20;88.80
9847;DHT22;4962;50.084;8.794;2022-07-29T15:41:50;26.20;89.50
9847;DHT22;4962;50.084;8.794;2022-07-29T15:44:17;26.30;89.50
9847;DHT22;4962;50.084;8.794;2022-07-29T15:46:44;26.10;89.30
9847;DHT22;4962;50.084;8.794;2022-07-29T15:49:32;26.10;90.00
9847;DHT22;4962;50.084;8.794;2022-07-29T15:52:00;26.10;90.20
9847;DHT22;4962;50.084;8.794;2022-07-29T15:54:28;26.10;90.20
9847;DHT22;4962;50.084;8.794;2022-07-29T15:56:55;26.20;90.20
9847;DHT22;4962;50.084;8.794;2022-07-29T15:59:22;26.30;89.90
9847;DHT22;4962;50.084;8.794;2022-07-29T16:01:49;26.40;89.40
9847;DHT22;4962;50.084;8.794;2022-07-29T16:04:17;26.40;88.80
9847;DHT22;4962;50.084;8.794;2022-07-29T16:06:47;26.50;88.80
9847;DHT22;4962;50.084;8.794;2022-07-29T16:09:15;26.50;88.50
9847;DHT22;4962;50.084;8.794;2022-07-29T16:11:42;26.60;88.40
9847;DHT22;4962;50.084;8.794;2022-07-29T16:14:10;26.60;88.30
9847;DHT22;4962;50.084;8.794;2022-07-29T16:16:38;26.60;87.90
9847;DHT22;4962;50.084;8.794;2022-07-29T16:19:06;26.60;87.60
9847;DHT22;4962;50.084;8.794;2022-07-29T16:21:36;26.50;87.20
9847;DHT22;4962;50.084;8.794;2022-07-29T16:24:06;26.30;87.80
9847;DHT22;4962;50.084;8.794;2022-07-29T16:26:33;26.30;88.20
9847;DHT22;4962;50.084;8.794;2022-07-29T16:29:00;26.30;88.40
9847;DHT22;4962;50.084;8.794;2022-07-29T16:31:27;26.30;88.20